sensor_id;sensor_type;location;lat;lon;timestamp;temperature;humidity
21895;DHT22;11112;51.270;7.224;2023-02-28T00:01:34;4.90;86.90
21895;DHT22;11112;51.270;7.224;2023-02-28T00:04:01;4.80;87.00
21895;DHT22;11112;51.270;7.224;2023-02-28T00:06:28;4.80;87.30
21895;DHT22;11112;51.270;7.224;2023-02-28T00:08:55;4.80;87.10
21895;DHT22;11112;51.270;7.224;2023-02-28T00:11:22;4.80;87.30
21895;DHT22;11112;51.270;7.224;2023-02-28T00:13:50;4.80;87.70
21895;DHT22;11112;51.270;7.224;2023-02-28T00:16:20;4.80;87.80
21895;DHT22;11112;51.270;7.224;2023-02-28T00:18:48;4.80;88.80
21895;DHT22;11112;51.270;7.224;2023-02-28T00:21:16;4.80;88.40
21895;DHT22;11112;51.270;7.224;2023-02-28T00:23:44;4.80;88.20
21895;DHT22;11112;51.270;7.224;2023-02-28T00:26:11;4.80;88.20
21895;DHT22;11112;51.270;7.224;2023-02-28T00:28:39;4.80;88.40
21895;DHT22;11112;51.270;7.224;2023-02-28T00:31:06;4.80;88.60
21895;DHT22;11112;51.270;7.224;2023-02-28T00:33:34;4.80;88.70
21895;DHT22;11112;51.270;7.224;2023-02-28T00:36:06;4.80;88.80
21895;DHT22;11112;51.270;7.224;2023-02-28T00:38:35;4.80;89.20
21895;DHT22;11112;51.270;7.224;2023-02-28T00:41:03;4.80;89.00
21895;DHT22;11112;51.270;7.224;2023-02-28T00:43:32;4.80;89.00
21895;DHT22;11112;51.270;7.224;2023-02-28T00:45:59;4.80;89.60
21895;DHT22;11112;51.270;7.224;2023-02-28T00:48:26;4.80;89.50
21895;DHT22;11112;51.270;7.224;2023-02-28T00:50:55;4.80;89.40
21895;DHT22;11112;51.270;7.224;2023-02-28T00:53:22;4.80;89.90
21895;DHT22;11112;51.270;7.224;2023-02-28T00:55:49;4.70;89.50
21895;DHT22;11112;51.270;7.224;2023-02-28T00:58:17;4.70;89.00
21895;DHT22;11112;51.270;7.224;2023-02-28T01:00:44;4.60;89.20
21895;DHT22;11112;51.270;7.224;2023-02-28T01:03:15;4.60;89.20
21895;DHT22;11112;51.270;7.224;2023-02-28T01:05:43;4.60;89.50
21895;DHT22;11112;51.270;7.224;2023-02-28T01:08:11;4.60;89.70
21895;DHT22;11112;51.270;7.224;2023-02-28T01:10:39;4.60;89.70
21895;DHT22;11112;51.270;7.224;2023-02-28T01:13:06;4.60;89.70
21895;DHT22;11112;51.270;7.224;2023-02-28T01:15:33;4.60;89.80
21895;DHT22;11112;51.270;7.224;2023-02-28T01:18:00;4.60;90.00
21895;DHT22;11112;51.270;7.224;2023-02-28T01:20:27;4.60;90.00
21895;DHT22;11112;51.270;7.224;2023-02-28T01:22:54;4.50;89.60
21895;DHT22;11112;51.270;7.224;2023-02-28T01:25:23;4.50;90.10
21895;DHT22;11112;51.270;7.224;2023-02-28T01:27:50;4.60;89.90
21895;DHT22;11112;51.270;7.224;2023-02-28T01:30:17;4.50;89.80
21895;DHT22;11112;51.270;7.224;2023-02-28T01:32:44;4.50;89.70
21895;DHT22;11112;51.270;7.224;2023-02-28T01:35:12;4.50;90.00
21895;DHT22;11112;51.270;7.224;2023-02-28T01:37:39;4.50;90.00
21895;DHT22;11112;51.270;7.224;2023-02-28T01:40:08;4.50;89.90
21895;DHT22;11112;51.270;7.224;2023-02-28T01:42:37;4.50;90.10
21895;DHT22;11112;51.270;7.224;2023-02-28T01:45:18;4.50;90.00
21895;DHT22;11112;51.270;7.224;2023-02-28T01:47:48;4.50;90.00
21895;DHT22;11112;51.270;7.224;2023-02-28T01:50:21;4.50;90.10
21895;DHT22;11112;51.270;7.224;2023-02-28T01:52:51;4.50;90.10
21895;DHT22;11112;51.270;7.224;2023-02-28T01:55:20;4.50;90.00
21895;DHT22;11112;51.270;7.224;2023-02-28T01:57:52;4.50;90.00
21895;DHT22;11112;51.270;7.224;2023-02-28T02:00:24;4.40;90.10
21895;DHT22;11112;51.270;7.224;2023-02-28T02:02:55;4.40;90.00
21895;DHT22;11112;51.270;7.224;2023-02-28T02:05:26;4.40;90.00
21895;DHT22;11112;51.270;7.224;2023-02-28T02:07:58;4.40;90.10
21895;DHT22;11112;51.270;7.224;2023-02-28T02:10:33;4.40;90.10
21895;DHT22;11112;51.270;7.224;2023-02-28T02:13:18;4.40;90.20
21895;DHT22;11112;51.270;7.224;2023-02-28T02:15:58;4.40;90.30
21895;DHT22;11112;51.270;7.224;2023-02-28T02:18:36;4.40;90.30
21895;DHT22;11112;51.270;7.224;2023-02-28T02:24:53;4.40;90.30
21895;DHT22;11112;51.270;7.224;2023-02-28T02:27:38;4.30;90.20
21895;DHT22;11112;51.270;7.224;2023-02-28T02:30:45;4.30;90.20
21895;DHT22;11112;51.270;7.224;2023-02-28T02:34:06;4.30;90.30
21895;DHT22;11112;51.270;7.224;2023-02-28T02:36:42;4.30;90.20
21895;DHT22;11112;51.270;7.224;2023-02-28T02:39:19;4.30;90.40
21895;DHT22;11112;51.270;7.224;2023-02-28T02:41:53;4.20;90.40
21895;DHT22;11112;51.270;7.224;2023-02-28T02:44:24;4.20;90.40
21895;DHT22;11112;51.270;7.224;2023-02-28T02:46:58;4.20;90.50
21895;DHT22;11112;51.270;7.224;2023-02-28T02:49:32;4.20;90.60
21895;DHT22;11112;51.270;7.224;2023-02-28T02:52:03;4.20;90.60
21895;DHT22;11112;51.270;7.224;2023-02-28T02:54:34;4.20;90.60
21895;DHT22;11112;51.270;7.224;2023-02-28T02:57:07;4.20;91.10
21895;DHT22;11112;51.270;7.224;2023-02-28T02:59:37;4.20;90.80
21895;DHT22;11112;51.270;7.224;2023-02-28T03:02:08;4.20;90.70
21895;DHT22;11112;51.270;7.224;2023-02-28T03:04:42;4.30;90.70
21895;DHT22;11112;51.270;7.224;2023-02-28T03:07:12;4.20;90.80
21895;DHT22;11112;51.270;7.224;2023-02-28T03:09:39;4.20;90.80
21895;DHT22;11112;51.270;7.224;2023-02-28T03:12:10;4.20;90.80
21895;DHT22;11112;51.270;7.224;2023-02-28T03:14:49;4.20;90.90
21895;DHT22;11112;51.270;7.224;2023-02-28T03:17:34;4.20;90.80
21895;DHT22;11112;51.270;7.224;2023-02-28T03:20:27;4.20;90.70
21895;DHT22;11112;51.270;7.224;2023-02-28T03:23:10;4.20;90.90
21895;DHT22;11112;51.270;7.224;2023-02-28T03:25:51;4.20;90.80
21895;DHT22;11112;51.270;7.224;2023-02-28T03:28:30;4.20;90.90
21895;DHT22;11112;51.270;7.224;2023-02-28T03:31:03;4.20;91.00
21895;DHT22;11112;51.270;7.224;2023-02-28T03:33:38;4.20;90.90
21895;DHT22;11112;51.270;7.224;2023-02-28T03:36:13;4.20;90.90
21895;DHT22;11112;51.270;7.224;2023-02-28T03:38:46;4.20;91.10
21895;DHT22;11112;51.270;7.224;2023-02-28T03:41:19;4.20;90.90
21895;DHT22;11112;51.270;7.224;2023-02-28T03:43:50;4.10;90.80
21895;DHT22;11112;51.270;7.224;2023-02-28T03:46:23;4.10;90.90
21895;DHT22;11112;51.270;7.224;2023-02-28T03:48:54;4.10;90.80
21895;DHT22;11112;51.270;7.224;2023-02-28T03:51:26;4.10;90.70
21895;DHT22;11112;51.270;7.224;2023-02-28T03:53:58;4.10;90.70
21895;DHT22;11112;51.270;7.224;2023-02-28T03:56:31;4.10;90.70
21895;DHT22;11112;51.270;7.224;2023-02-28T03:59:04;4.10;90.60
21895;DHT22;11112;51.270;7.224;2023-02-28T04:01:33;4.10;90.60
21895;DHT22;11112;51.270;7.224;2023-02-28T04:04:02;4.10;90.70
21895;DHT22;11112;51.270;7.224;2023-02-28T04:06:33;4.10;90.60
21895;DHT22;11112;51.270;7.224;2023-02-28T04:09:01;4.10;90.70
21895;DHT22;11112;51.270;7.224;2023-02-28T04:11:33;4.10;90.70
21895;DHT22;11112;51.270;7.224;2023-02-28T04:14:01;4.10;90.60
21895;DHT22;11112;51.270;7.224;2023-02-28T04:16:28;4.10;90.50
21895;DHT22;11112;51.270;7.224;2023-02-28T04:18:56;4.10;90.50
21895;DHT22;11112;51.270;7.224;2023-02-28T04:21:27;4.10;90.40
21895;DHT22;11112;51.270;7.224;2023-02-28T04:23:56;4.10;90.40
21895;DHT22;11112;51.270;7.224;2023-02-28T04:26:28;4.10;90.30
21895;DHT22;11112;51.270;7.224;2023-02-28T04:28:56;4.10;90.40
21895;DHT22;11112;51.270;7.224;2023-02-28T04:31:23;4.00;90.10
21895;DHT22;11112;51.270;7.224;2023-02-28T04:33:50;4.00;90.40
21895;DHT22;11112;51.270;7.224;2023-02-28T04:36:17;4.00;90.40
21895;DHT22;11112;51.270;7.224;2023-02-28T04:38:45;4.00;90.30
21895;DHT22;11112;51.270;7.224;2023-02-28T04:41:14;4.00;90.30
21895;DHT22;11112;51.270;7.224;2023-02-28T04:43:41;4.00;90.40
21895;DHT22;11112;51.270;7.224;2023-02-28T04:46:09;3.90;90.20
21895;DHT22;11112;51.270;7.224;2023-02-28T04:48:38;3.90;90.20
21895;DHT22;11112;51.270;7.224;2023-02-28T04:51:06;3.90;90.20
21895;DHT22;11112;51.270;7.224;2023-02-28T04:53:36;3.90;90.00
21895;DHT22;11112;51.270;7.224;2023-02-28T04:56:05;3.90;89.80
21895;DHT22;11112;51.270;7.224;2023-02-28T04:58:34;3.90;90.00
21895;DHT22;11112;51.270;7.224;2023-02-28T05:01:03;3.90;89.70
21895;DHT22;11112;51.270;7.224;2023-02-28T05:03:38;3.90;89.80
21895;DHT22;11112;51.270;7.224;2023-02-28T05:06:07;3.90;89.80
21895;DHT22;11112;51.270;7.224;2023-02-28T05:08:34;3.90;89.90
21895;DHT22;11112;51.270;7.224;2023-02-28T05:11:01;3.90;89.60
21895;DHT22;11112;51.270;7.224;2023-02-28T05:13:29;3.90;89.70
21895;DHT22;11112;51.270;7.224;2023-02-28T05:15:57;3.90;89.30
21895;DHT22;11112;51.270;7.224;2023-02-28T05:18:24;3.90;89.30
21895;DHT22;11112;51.270;7.224;2023-02-28T05:20:51;3.90;89.30
21895;DHT22;11112;51.270;7.224;2023-02-28T05:23:20;3.90;89.70
21895;DHT22;11112;51.270;7.224;2023-02-28T05:25:49;3.90;89.70
21895;DHT22;11112;51.270;7.224;2023-02-28T05:28:17;3.90;89.50
21895;DHT22;11112;51.270;7.224;2023-02-28T05:30:44;3.90;89.30
21895;DHT22;11112;51.270;7.224;2023-02-28T05:33:13;3.80;89.20
21895;DHT22;11112;51.270;7.224;2023-02-28T05:35:41;3.80;89.40
21895;DHT22;11112;51.270;7.224;2023-02-28T05:38:09;3.70;89.40
21895;DHT22;11112;51.270;7.224;2023-02-28T05:40:38;3.70;89.50
21895;DHT22;11112;51.270;7.224;2023-02-28T05:43:07;3.70;89.10
21895;DHT22;11112;51.270;7.224;2023-02-28T05:45:36;3.80;89.10
21895;DHT22;11112;51.270;7.224;2023-02-28T05:48:03;3.80;89.40
21895;DHT22;11112;51.270;7.224;2023-02-28T05:50:31;3.80;88.90
21895;DHT22;11112;51.270;7.224;2023-02-28T05:52:58;3.70;88.60
21895;DHT22;11112;51.270;7.224;2023-02-28T05:55:26;3.70;88.40
21895;DHT22;11112;51.270;7.224;2023-02-28T05:57:53;3.70;88.40
21895;DHT22;11112;51.270;7.224;2023-02-28T06:00:20;3.70;88.20
21895;DHT22;11112;51.270;7.224;2023-02-28T06:02:48;3.70;88.10
21895;DHT22;11112;51.270;7.224;2023-02-28T06:05:17;3.70;88.10
21895;DHT22;11112;51.270;7.224;2023-02-28T06:07:45;3.70;87.60
21895;DHT22;11112;51.270;7.224;2023-02-28T06:10:13;3.70;87.50
21895;DHT22;11112;51.270;7.224;2023-02-28T06:12:40;3.70;87.80
21895;DHT22;11112;51.270;7.224;2023-02-28T06:15:12;3.70;87.40
21895;DHT22;11112;51.270;7.224;2023-02-28T06:17:40;3.70;87.50
21895;DHT22;11112;51.270;7.224;2023-02-28T06:20:08;3.70;87.70
21895;DHT22;11112;51.270;7.224;2023-02-28T06:22:38;3.70;87.60
21895;DHT22;11112;51.270;7.224;2023-02-28T06:25:09;3.70;87.50
21895;DHT22;11112;51.270;7.224;2023-02-28T06:27:36;3.70;87.40
21895;DHT22;11112;51.270;7.224;2023-02-28T06:30:04;3.70;87.50
21895;DHT22;11112;51.270;7.224;2023-02-28T06:32:32;3.70;88.10
21895;DHT22;11112;51.270;7.224;2023-02-28T06:34:59;3.70;87.30
21895;DHT22;11112;51.270;7.224;2023-02-28T06:37:26;3.70;87.20
21895;DHT22;11112;51.270;7.224;2023-02-28T06:39:54;3.70;87.20
21895;DHT22;11112;51.270;7.224;2023-02-28T06:42:24;3.70;87.00
21895;DHT22;11112;51.270;7.224;2023-02-28T06:44:54;3.70;87.20
21895;DHT22;11112;51.270;7.224;2023-02-28T06:47:22;3.70;87.00
21895;DHT22;11112;51.270;7.224;2023-02-28T06:49:50;3.70;86.90
21895;DHT22;11112;51.270;7.224;2023-02-28T06:52:17;3.70;87.00
21895;DHT22;11112;51.270;7.224;2023-02-28T06:54:45;3.70;86.80
21895;DHT22;11112;51.270;7.224;2023-02-28T06:57:12;3.70;86.50
21895;DHT22;11112;51.270;7.224;2023-02-28T06:59:41;3.70;86.20
21895;DHT22;11112;51.270;7.224;2023-02-28T07:02:08;3.70;86.60
21895;DHT22;11112;51.270;7.224;2023-02-28T07:04:35;3.70;86.60
21895;DHT22;11112;51.270;7.224;2023-02-28T07:07:05;3.70;86.60
21895;DHT22;11112;51.270;7.224;2023-02-28T07:09:32;3.70;86.90
21895;DHT22;11112;51.270;7.224;2023-02-28T07:12:00;3.70;86.90
21895;DHT22;11112;51.270;7.224;2023-02-28T07:14:27;3.70;86.60
21895;DHT22;11112;51.270;7.224;2023-02-28T07:16:55;3.70;86.80
21895;DHT22;11112;51.270;7.224;2023-02-28T07:19:22;3.80;86.70
21895;DHT22;11112;51.270;7.224;2023-02-28T07:21:49;3.80;86.60
21895;DHT22;11112;51.270;7.224;2023-02-28T07:24:17;3.80;87.00
21895;DHT22;11112;51.270;7.224;2023-02-28T07:26:44;3.80;86.90
21895;DHT22;11112;51.270;7.224;2023-02-28T07:29:11;3.80;86.70
21895;DHT22;11112;51.270;7.224;2023-02-28T07:31:38;3.80;87.10
21895;DHT22;11112;51.270;7.224;2023-02-28T07:34:06;3.80;86.90
21895;DHT22;11112;51.270;7.224;2023-02-28T07:36:34;3.90;86.40
21895;DHT22;11112;51.270;7.224;2023-02-28T07:39:01;3.90;86.50
21895;DHT22;11112;51.270;7.224;2023-02-28T07:41:30;3.90;86.40
21895;DHT22;11112;51.270;7.224;2023-02-28T07:43:59;3.90;86.60
21895;DHT22;11112;51.270;7.224;2023-02-28T07:46:27;3.90;86.70
21895;DHT22;11112;51.270;7.224;2023-02-28T07:48:54;3.90;86.80
21895;DHT22;11112;51.270;7.224;2023-02-28T07:51:26;4.00;86.40
21895;DHT22;11112;51.270;7.224;2023-02-28T07:53:53;4.00;86.60
21895;DHT22;11112;51.270;7.224;2023-02-28T07:56:20;4.00;86.60
21895;DHT22;11112;51.270;7.224;2023-02-28T07:58:47;4.00;86.30
21895;DHT22;11112;51.270;7.224;2023-02-28T08:01:14;4.00;84.60
21895;DHT22;11112;51.270;7.224;2023-02-28T08:03:42;4.00;82.90
21895;DHT22;11112;51.270;7.224;2023-02-28T08:06:17;4.00;82.90
21895;DHT22;11112;51.270;7.224;2023-02-28T08:08:46;4.10;82.60
21895;DHT22;11112;51.270;7.224;2023-02-28T08:11:14;4.00;82.60
21895;DHT22;11112;51.270;7.224;2023-02-28T08:13:42;4.00;81.60
21895;DHT22;11112;51.270;7.224;2023-02-28T08:16:11;4.00;81.60
21895;DHT22;11112;51.270;7.224;2023-02-28T08:18:40;4.00;80.90
21895;DHT22;11112;51.270;7.224;2023-02-28T08:21:08;4.10;80.80
21895;DHT22;11112;51.270;7.224;2023-02-28T08:23:36;4.10;81.10
21895;DHT22;11112;51.270;7.224;2023-02-28T08:26:05;4.20;80.20
21895;DHT22;11112;51.270;7.224;2023-02-28T08:28:32;4.20;80.20
21895;DHT22;11112;51.270;7.224;2023-02-28T08:31:00;4.20;78.60
21895;DHT22;11112;51.270;7.224;2023-02-28T08:33:28;4.10;79.00
21895;DHT22;11112;51.270;7.224;2023-02-28T08:35:55;4.20;78.80
21895;DHT22;11112;51.270;7.224;2023-02-28T08:38:22;4.20;78.20
21895;DHT22;11112;51.270;7.224;2023-02-28T08:40:50;4.20;78.50
21895;DHT22;11112;51.270;7.224;2023-02-28T08:43:25;4.30;79.10
21895;DHT22;11112;51.270;7.224;2023-02-28T08:45:52;4.30;77.60
21895;DHT22;11112;51.270;7.224;2023-02-28T08:48:20;4.30;76.50
21895;DHT22;11112;51.270;7.224;2023-02-28T08:50:55;4.20;76.20
21895;DHT22;11112;51.270;7.224;2023-02-28T08:53:23;4.20;76.80
21895;DHT22;11112;51.270;7.224;2023-02-28T08:55:57;4.20;76.70
21895;DHT22;11112;51.270;7.224;2023-02-28T08:58:26;4.30;76.40
21895;DHT22;11112;51.270;7.224;2023-02-28T09:00:54;4.40;76.10
21895;DHT22;11112;51.270;7.224;2023-02-28T09:03:22;4.40;74.60
21895;DHT22;11112;51.270;7.224;2023-02-28T09:05:54;4.40;75.60
21895;DHT22;11112;51.270;7.224;2023-02-28T09:08:23;4.50;75.50
21895;DHT22;11112;51.270;7.224;2023-02-28T09:10:50;4.60;73.10
21895;DHT22;11112;51.270;7.224;2023-02-28T09:13:18;4.70;73.10
21895;DHT22;11112;51.270;7.224;2023-02-28T09:15:46;4.70;71.00
21895;DHT22;11112;51.270;7.224;2023-02-28T09:18:14;4.70;69.50
21895;DHT22;11112;51.270;7.224;2023-02-28T09:20:42;4.60;69.50
21895;DHT22;11112;51.270;7.224;2023-02-28T09:23:11;4.70;69.10
21895;DHT22;11112;51.270;7.224;2023-02-28T09:25:45;4.80;68.90
21895;DHT22;11112;51.270;7.224;2023-02-28T09:28:13;4.80;69.70
21895;DHT22;11112;51.270;7.224;2023-02-28T09:30:44;5.00;69.80
21895;DHT22;11112;51.270;7.224;2023-02-28T09:33:14;5.00;70.40
21895;DHT22;11112;51.270;7.224;2023-02-28T09:35:41;4.80;68.40
21895;DHT22;11112;51.270;7.224;2023-02-28T09:38:09;4.80;69.50
21895;DHT22;11112;51.270;7.224;2023-02-28T09:40:39;4.80;69.30
21895;DHT22;11112;51.270;7.224;2023-02-28T09:43:11;4.80;69.90
21895;DHT22;11112;51.270;7.224;2023-02-28T09:45:42;4.70;68.30
21895;DHT22;11112;51.270;7.224;2023-02-28T09:48:17;4.70;68.00
21895;DHT22;11112;51.270;7.224;2023-02-28T09:50:50;4.80;68.20
21895;DHT22;11112;51.270;7.224;2023-02-28T09:53:22;4.80;68.60
21895;DHT22;11112;51.270;7.224;2023-02-28T09:55:58;4.80;67.10
21895;DHT22;11112;51.270;7.224;2023-02-28T09:58:49;4.70;66.60
21895;DHT22;11112;51.270;7.224;2023-02-28T10:01:34;4.70;66.90
21895;DHT22;11112;51.270;7.224;2023-02-28T10:04:11;4.70;65.30
21895;DHT22;11112;51.270;7.224;2023-02-28T10:06:48;4.70;66.40
21895;DHT22;11112;51.270;7.224;2023-02-28T10:09:19;4.70;66.20
21895;DHT22;11112;51.270;7.224;2023-02-28T10:11:52;4.70;65.50
21895;DHT22;11112;51.270;7.224;2023-02-28T10:14:22;4.60;66.40
21895;DHT22;11112;51.270;7.224;2023-02-28T10:16:55;4.60;66.40
21895;DHT22;11112;51.270;7.224;2023-02-28T10:19:33;4.60;65.40
21895;DHT22;11112;51.270;7.224;2023-02-28T10:22:08;4.50;65.50
21895;DHT22;11112;51.270;7.224;2023-02-28T10:24:43;4.60;66.60
21895;DHT22;11112;51.270;7.224;2023-02-28T10:27:16;4.70;66.90
21895;DHT22;11112;51.270;7.224;2023-02-28T10:29:50;4.80;66.40
21895;DHT22;11112;51.270;7.224;2023-02-28T10:32:20;4.90;66.40
21895;DHT22;11112;51.270;7.224;2023-02-28T10:34:53;4.90;65.70
21895;DHT22;11112;51.270;7.224;2023-02-28T10:37:24;4.90;66.20
21895;DHT22;11112;51.270;7.224;2023-02-28T10:39:52;5.00;66.00
21895;DHT22;11112;51.270;7.224;2023-02-28T10:42:25;5.00;65.40
21895;DHT22;11112;51.270;7.224;2023-02-28T10:45:07;5.00;64.50
21895;DHT22;11112;51.270;7.224;2023-02-28T10:47:51;5.00;64.90
21895;DHT22;11112;51.270;7.224;2023-02-28T10:50:33;5.00;64.90
21895;DHT22;11112;51.270;7.224;2023-02-28T10:53:24;5.00;64.80
21895;DHT22;11112;51.270;7.224;2023-02-28T10:56:14;5.10;66.00
21895;DHT22;11112;51.270;7.224;2023-02-28T10:58:50;5.10;65.80
21895;DHT22;11112;51.270;7.224;2023-02-28T11:01:22;5.20;68.40
21895;DHT22;11112;51.270;7.224;2023-02-28T11:03:52;5.40;66.40
21895;DHT22;11112;51.270;7.224;2023-02-28T11:06:23;5.40;66.90
21895;DHT22;11112;51.270;7.224;2023-02-28T11:08:54;5.30;63.50
21895;DHT22;11112;51.270;7.224;2023-02-28T11:11:52;5.30;64.00
21895;DHT22;11112;51.270;7.224;2023-02-28T11:14:46;5.30;64.70
21895;DHT22;11112;51.270;7.224;2023-02-28T11:17:29;5.30;64.30
21895;DHT22;11112;51.270;7.224;2023-02-28T11:20:23;5.40;64.70
21895;DHT22;11112;51.270;7.224;2023-02-28T11:23:04;5.30;63.50
21895;DHT22;11112;51.270;7.224;2023-02-28T11:25:35;5.30;63.20
21895;DHT22;11112;51.270;7.224;2023-02-28T11:28:08;5.30;64.10
21895;DHT22;11112;51.270;7.224;2023-02-28T11:31:01;5.30;63.20
21895;DHT22;11112;51.270;7.224;2023-02-28T11:33:37;5.40;63.90
21895;DHT22;11112;51.270;7.224;2023-02-28T11:36:13;5.40;65.00
21895;DHT22;11112;51.270;7.224;2023-02-28T11:38:47;5.40;66.80
21895;DHT22;11112;51.270;7.224;2023-02-28T11:41:38;5.30;65.00
21895;DHT22;11112;51.270;7.224;2023-02-28T11:44:30;5.30;63.80
21895;DHT22;11112;51.270;7.224;2023-02-28T11:47:11;5.30;65.80
21895;DHT22;11112;51.270;7.224;2023-02-28T11:49:50;5.30;65.60
21895;DHT22;11112;51.270;7.224;2023-02-28T11:52:35;5.30;66.50
21895;DHT22;11112;51.270;7.224;2023-02-28T11:55:15;5.30;66.90
21895;DHT22;11112;51.270;7.224;2023-02-28T12:01:18;5.50;66.70
21895;DHT22;11112;51.270;7.224;2023-02-28T12:04:16;5.50;66.40
21895;DHT22;11112;51.270;7.224;2023-02-28T12:06:57;5.50;65.60
21895;DHT22;11112;51.270;7.224;2023-02-28T12:09:44;5.50;64.40
21895;DHT22;11112;51.270;7.224;2023-02-28T12:12:27;5.40;63.50
21895;DHT22;11112;51.270;7.224;2023-02-28T12:15:59;5.40;64.30
21895;DHT22;11112;51.270;7.224;2023-02-28T12:22:37;5.60;63.00
21895;DHT22;11112;51.270;7.224;2023-02-28T12:28:26;5.50;61.00
21895;DHT22;11112;51.270;7.224;2023-02-28T12:31:03;5.50;61.30
21895;DHT22;11112;51.270;7.224;2023-02-28T12:33:38;5.50;63.80
21895;DHT22;11112;51.270;7.224;2023-02-28T12:36:11;5.50;64.40
21895;DHT22;11112;51.270;7.224;2023-02-28T12:38:44;5.60;65.40
21895;DHT22;11112;51.270;7.224;2023-02-28T12:41:17;5.60;65.90
21895;DHT22;11112;51.270;7.224;2023-02-28T12:43:52;5.50;65.20
21895;DHT22;11112;51.270;7.224;2023-02-28T12:46:29;5.50;66.10
21895;DHT22;11112;51.270;7.224;2023-02-28T12:49:04;5.50;66.50
21895;DHT22;11112;51.270;7.224;2023-02-28T12:51:35;5.50;66.90
21895;DHT22;11112;51.270;7.224;2023-02-28T12:54:10;5.50;67.10
21895;DHT22;11112;51.270;7.224;2023-02-28T12:56:50;5.50;67.30
21895;DHT22;11112;51.270;7.224;2023-02-28T12:59:27;5.50;67.80
21895;DHT22;11112;51.270;7.224;2023-02-28T13:05:39;5.40;68.00
21895;DHT22;11112;51.270;7.224;2023-02-28T13:08:47;5.40;68.70
21895;DHT22;11112;51.270;7.224;2023-02-28T13:11:33;5.50;69.10
21895;DHT22;11112;51.270;7.224;2023-02-28T13:14:20;5.50;68.30
21895;DHT22;11112;51.270;7.224;2023-02-28T13:17:01;5.60;67.90
21895;DHT22;11112;51.270;7.224;2023-02-28T13:19:32;5.60;68.80
21895;DHT22;11112;51.270;7.224;2023-02-28T13:22:01;5.70;68.80
21895;DHT22;11112;51.270;7.224;2023-02-28T13:24:42;5.70;67.50
21895;DHT22;11112;51.270;7.224;2023-02-28T13:27:39;5.60;67.70
21895;DHT22;11112;51.270;7.224;2023-02-28T13:34:11;5.60;67.40
21895;DHT22;11112;51.270;7.224;2023-02-28T13:36:40;5.60;65.70
21895;DHT22;11112;51.270;7.224;2023-02-28T13:39:48;5.70;66.10
21895;DHT22;11112;51.270;7.224;2023-02-28T13:42:32;5.70;65.30
21895;DHT22;11112;51.270;7.224;2023-02-28T13:45:23;5.80;66.60
21895;DHT22;11112;51.270;7.224;2023-02-28T13:47:54;5.80;67.00
21895;DHT22;11112;51.270;7.224;2023-02-28T13:50:31;5.70;64.60
21895;DHT22;11112;51.270;7.224;2023-02-28T13:53:37;5.70;62.60
21895;DHT22;11112;51.270;7.224;2023-02-28T13:56:27;5.70;62.30
21895;DHT22;11112;51.270;7.224;2023-02-28T13:59:12;5.70;62.10
21895;DHT22;11112;51.270;7.224;2023-02-28T14:01:57;5.80;63.30
21895;DHT22;11112;51.270;7.224;2023-02-28T14:04:53;5.80;62.90
21895;DHT22;11112;51.270;7.224;2023-02-28T14:07:32;5.70;63.40
21895;DHT22;11112;51.270;7.224;2023-02-28T14:10:06;5.70;65.20
21895;DHT22;11112;51.270;7.224;2023-02-28T14:12:56;5.80;66.40
21895;DHT22;11112;51.270;7.224;2023-02-28T14:15:39;5.80;66.80
21895;DHT22;11112;51.270;7.224;2023-02-28T14:18:17;5.80;66.60
21895;DHT22;11112;51.270;7.224;2023-02-28T14:20:52;5.80;65.60
21895;DHT22;11112;51.270;7.224;2023-02-28T14:24:13;5.80;65.80
21895;DHT22;11112;51.270;7.224;2023-02-28T14:30:43;5.90;66.50
21895;DHT22;11112;51.270;7.224;2023-02-28T14:33:27;5.90;66.50
21895;DHT22;11112;51.270;7.224;2023-02-28T14:36:08;5.80;67.60
21895;DHT22;11112;51.270;7.224;2023-02-28T14:38:43;5.80;67.50
21895;DHT22;11112;51.270;7.224;2023-02-28T14:41:21;5.80;66.90
21895;DHT22;11112;51.270;7.224;2023-02-28T14:43:56;5.80;67.70
21895;DHT22;11112;51.270;7.224;2023-02-28T14:46:39;5.80;67.70
21895;DHT22;11112;51.270;7.224;2023-02-28T14:49:15;5.80;67.70
21895;DHT22;11112;51.270;7.224;2023-02-28T14:51:49;5.80;67.70
21895;DHT22;11112;51.270;7.224;2023-02-28T14:54:21;5.90;67.80
21895;DHT22;11112;51.270;7.224;2023-02-28T14:56:51;5.90;68.50
21895;DHT22;11112;51.270;7.224;2023-02-28T14:59:27;5.90;68.60
21895;DHT22;11112;51.270;7.224;2023-02-28T15:02:20;5.80;68.80
21895;DHT22;11112;51.270;7.224;2023-02-28T15:04:56;5.90;69.00
21895;DHT22;11112;51.270;7.224;2023-02-28T15:07:26;5.90;68.80
21895;DHT22;11112;51.270;7.224;2023-02-28T15:10:17;5.90;67.00
21895;DHT22;11112;51.270;7.224;2023-02-28T15:13:07;5.90;67.50
21895;DHT22;11112;51.270;7.224;2023-02-28T15:15:44;5.90;67.90
21895;DHT22;11112;51.270;7.224;2023-02-28T15:18:22;5.90;68.40
21895;DHT22;11112;51.270;7.224;2023-02-28T15:20:53;5.80;69.70
21895;DHT22;11112;51.270;7.224;2023-02-28T15:23:22;5.90;69.80
21895;DHT22;11112;51.270;7.224;2023-02-28T15:25:49;5.90;70.90
21895;DHT22;11112;51.270;7.224;2023-02-28T15:28:21;5.90;70.50
21895;DHT22;11112;51.270;7.224;2023-02-28T15:30:56;5.90;70.50
21895;DHT22;11112;51.270;7.224;2023-02-28T15:33:28;5.90;69.50
21895;DHT22;11112;51.270;7.224;2023-02-28T15:36:12;5.90;69.40
21895;DHT22;11112;51.270;7.224;2023-02-28T15:38:40;5.90;69.00
21895;DHT22;11112;51.270;7.224;2023-02-28T15:41:22;5.90;69.40
21895;DHT22;11112;51.270;7.224;2023-02-28T15:44:22;5.90;69.40
21895;DHT22;11112;51.270;7.224;2023-02-28T15:46:58;5.90;69.70
21895;DHT22;11112;51.270;7.224;2023-02-28T15:49:29;5.90;70.20
21895;DHT22;11112;51.270;7.224;2023-02-28T15:52:01;5.90;71.30
21895;DHT22;11112;51.270;7.224;2023-02-28T15:54:31;5.80;71.80
21895;DHT22;11112;51.270;7.224;2023-02-28T15:57:03;5.80;72.40
21895;DHT22;11112;51.270;7.224;2023-02-28T15:59:37;5.80;73.00
21895;DHT22;11112;51.270;7.224;2023-02-28T16:02:17;5.80;72.90
21895;DHT22;11112;51.270;7.224;2023-02-28T16:04:57;5.80;72.80
21895;DHT22;11112;51.270;7.224;2023-02-28T16:07:40;5.80;73.70
21895;DHT22;11112;51.270;7.224;2023-02-28T16:10:10;5.80;72.80
21895;DHT22;11112;51.270;7.224;2023-02-28T16:12:42;5.80;72.90
21895;DHT22;11112;51.270;7.224;2023-02-28T16:15:22;5.80;73.20
21895;DHT22;11112;51.270;7.224;2023-02-28T16:17:51;5.80;72.90
21895;DHT22;11112;51.270;7.224;2023-02-28T16:20:21;5.70;73.20
21895;DHT22;11112;51.270;7.224;2023-02-28T16:22:51;5.70;73.40
21895;DHT22;11112;51.270;7.224;2023-02-28T16:25:25;5.70;74.80
21895;DHT22;11112;51.270;7.224;2023-02-28T16:27:55;5.70;73.60
21895;DHT22;11112;51.270;7.224;2023-02-28T16:30:28;5.70;73.60
21895;DHT22;11112;51.270;7.224;2023-02-28T16:32:57;5.70;74.00
21895;DHT22;11112;51.270;7.224;2023-02-28T16:35:25;5.70;73.90
21895;DHT22;11112;51.270;7.224;2023-02-28T16:37:53;5.60;74.10
21895;DHT22;11112;51.270;7.224;2023-02-28T16:40:32;5.70;74.50
21895;DHT22;11112;51.270;7.224;2023-02-28T16:46:07;5.70;74.50
21895;DHT22;11112;51.270;7.224;2023-02-28T16:48:40;5.70;74.50
21895;DHT22;11112;51.270;7.224;2023-02-28T16:51:13;5.60;74.50
21895;DHT22;11112;51.270;7.224;2023-02-28T16:54:17;5.60;74.90